Flight Track Log - Related Links

Times and Time Zones

All times are in EDT time to prevent confusion due to time zone crossing. See the XOJ549 flight status page for this flight to view local times or setup timezone preferences in your user account.

Time Position Orientation Groundspeed Altitude Reporting Facility
EDT Latitude Longitude Course Direction KTS MPH feet Rate Location/Type
Wed 01:49:13 PM 38.3875 -81.5486 145° Southeast 191 220 2,800  Level Indianapolis Center
Wed 01:50:15 PM 38.3261 -81.4936 145° Southeast 232 267 7,300 3,677 Climbing Indianapolis Center
Wed 01:51:17 PM 38.2622 -81.4500 152° Southeast 258 297 10,400 2,952 Climbing Indianapolis Center
Wed 01:52:19 PM 38.1833 -81.3950 151° Southeast 317 365 13,400 2,952 Climbing Indianapolis Center
Wed 01:53:21 PM 38.0994 -81.3383 152° Southeast 339 390 16,500 2,710 Climbing Indianapolis Center
Wed 01:54:23 PM 38.0111 -81.2775 152° Southeast 360 414 19,000 2,516 Climbing Indianapolis Center
Wed 01:55:25 PM 37.9175 -81.2142 152° Southeast 377 434 21,700 2,613 Climbing Indianapolis Center
Wed 01:56:27 PM 37.8069 -81.1411 152° Southeast 382 440 24,400 2,419 Climbing Indianapolis Center
Wed 01:57:29 PM 37.7094 -81.0808 154° Southeast 395 455 26,700 2,098 Climbing Indianapolis Center
Wed 01:58:30 PM 37.6100 -81.0228 155° Southeast 402 463 28,700 1,659 Climbing Indianapolis Center
Wed 01:59:32 PM 37.5078 -80.9608 154° Southeast 417 480 30,100 1,431 Climbing Indianapolis Center
Wed 02:00:40 PM 37.3603 -80.8717 154° Southeast 449 517 31,800 1,453 Climbing Atlanta Center
Wed 02:01:40 PM 37.2544 -80.8161 157° South 454 522 33,200 1,600 Climbing Atlanta Center
Wed 02:02:40 PM 37.1181 -80.7800 168° South 459 528 35,000 900 Climbing Atlanta Center
Wed 02:03:40 PM 36.9903 -80.7594 173° South 454 522 35,000 450 Level Atlanta Center
Wed 02:04:40 PM 36.8606 -80.7414 174° South 465 535 35,900 1,250 Climbing Atlanta Center
Wed 02:05:40 PM 36.7494 -80.7200 171° South 465 535 37,500 1,600 Climbing Atlanta Center
Wed 02:06:40 PM 36.6333 -80.6628 158° South 436 502 39,100 1,500 Climbing Atlanta Center
Wed 02:07:40 PM 36.5325 -80.5611 141° Southeast 460 529 40,500 950 Climbing Atlanta Center
Wed 02:08:40 PM 36.4394 -80.4492 136° Southeast 460 529 41,000 250 Climbing Atlanta Center
Wed 02:09:40 PM 36.3358 -80.3222 135° Southeast 466 536 41,000  Level Atlanta Center
Wed 02:11:26 PM 36.1767 -80.1261 135° Southeast 466 536 41,000  Level Washington Center
Wed 02:12:26 PM 36.0722 -80.0122 139° Southeast 487 560 41,000  Level Washington Center
Wed 02:13:27 PM 35.9642 -79.8906 138° Southeast 506 582 41,000  Level Washington Center
Wed 02:14:28 PM 35.8475 -79.7664 139° Southeast 512 589 41,000  Level Washington Center
Wed 02:15:28 PM 35.7508 -79.6639 139° Southeast 517 595 41,000  Level Washington Center
Wed 02:16:26 PM 35.6319 -79.5378 139° Southeast 511 588 41,000  Level Washington Center
Wed 02:17:27 PM 35.5250 -79.4303 141° Southeast 511 588 41,000  Level Washington Center
Wed 02:18:27 PM 35.4281 -79.3239 138° Southeast 511 588 41,000  Level Washington Center
Wed 02:19:27 PM 35.3169 -79.2067 139° Southeast 518 596 41,000  Level Washington Center
Wed 02:20:28 PM 35.2075 -79.0950 140° Southeast 523 602 41,000  Level Washington Center
Wed 02:21:26 PM 35.0983 -78.9811 140° Southeast 523 602 41,000  Level Washington Center
Wed 02:22:27 PM 34.9867 -78.8675 140° Southeast 523 602 41,000  Level Washington Center
Wed 02:23:28 PM 34.8769 -78.7542 140° Southeast 523 602 41,000  Level Washington Center
Wed 02:24:26 PM 34.7614 -78.6283 138° Southeast 518 596 41,000  Level Washington Center
Wed 02:25:26 PM 34.6494 -78.5131 140° Southeast 518 596 41,000  Level Washington Center
Wed 02:26:27 PM 34.5539 -78.4136 139° Southeast 518 596 41,000 50 Level Washington Center
Wed 02:27:27 PM 34.4436 -78.3067 141° Southeast 513 590 41,100 309 Climbing Washington Center
Wed 02:28:04 PM 34.3614 -78.2242 140° Southeast 505 581 41,500 557 Climbing Jacksonville Center
Wed 02:29:04 PM 34.2636 -78.1239 140° Southeast 516 594 42,000 500 Climbing Jacksonville Center
Wed 02:30:04 PM 34.1508 -78.0122 141° Southeast 521 600 42,500 450 Climbing Jacksonville Center
Wed 02:31:04 PM 34.0214 -77.9544 160° South 509 586 42,900 250 Climbing Jacksonville Center
Wed 02:32:04 PM 33.8917 -77.9467 177° South 470 541 43,000 50 Climbing Jacksonville Center
Wed 02:33:04 PM 33.7561 -77.9444 179° South 476 548 43,000  Level Jacksonville Center
Wed 02:34:04 PM 33.6117 -77.9350 177° South 476 548 43,000  Level Jacksonville Center
Wed 02:35:04 PM 33.4800 -77.9275 177° South 481 554 43,000 -50 Level Jacksonville Center
Wed 02:36:04 PM 33.3461 -77.9200 177° South 481 554 42,900  Descending Jacksonville Center
Wed 02:37:04 PM 33.2122 -77.9100 176° South 481 554 43,000 50 Climbing Jacksonville Center
Wed 02:38:04 PM 33.0803 -77.9000 176° South 481 554 43,000  Level Jacksonville Center
Wed 02:39:04 PM 32.9528 -77.8947 178° South 476 548 43,000  Level Jacksonville Center
Wed 02:40:04 PM 32.8189 -77.8875 177° South 481 554 43,000  Level Jacksonville Center
Wed 02:41:04 PM 32.6872 -77.8822 178° South 481 554 43,000  Level Jacksonville Center
Wed 02:42:04 PM 32.5597 -77.8747 177° South 481 554 43,000  Level Jacksonville Center
Wed 02:43:04 PM 32.4297 -77.8619 175° South 476 548 43,000  Level Jacksonville Center
Wed 02:44:04 PM 32.3000 -77.8544 177° South 476 548 43,000  Level Jacksonville Center
Wed 02:45:04 PM 32.1703 -77.8469 177° South 476 548 43,000  Level Jacksonville Center
Wed 02:46:04 PM 32.0408 -77.8419 178° South 476 548 43,000  Level Jacksonville Center
Wed 02:47:04 PM 31.9089 -77.8319 176° South 476 548 43,000  Level Jacksonville Center
Wed 02:48:04 PM 31.7811 -77.8194 175° South 476 548 43,000  Level Jacksonville Center
Wed 02:49:04 PM 31.6494 -77.8144 178° South 475 547 43,000  Level Jacksonville Center
Wed 02:50:04 PM 31.5217 -77.8042 176° South 475 547 43,000  Level Jacksonville Center
Wed 02:51:04 PM 31.3900 -77.8017 179° South 475 547 43,000  Level Jacksonville Center
Wed 02:52:04 PM 31.2583 -77.7967 178° South 475 547 43,000  Level Jacksonville Center
Wed 02:53:04 PM 31.1308 -77.7917 178° South 466 536 43,000  Level Jacksonville Center
Wed 02:54:04 PM 30.9992 -77.7867 178° South 480 552 43,000 100 Level Jacksonville Center
Wed 02:55:04 PM 30.8714 -77.7742 175° South 473 544 43,200 400 Climbing Jacksonville Center
Wed 02:56:04 PM 30.7433 -77.7617 175° South 467 537 43,800 650 Climbing Jacksonville Center
Wed 02:57:04 PM 30.6200 -77.7564 178° South 459 528 44,500 600 Climbing Jacksonville Center
Wed 02:58:04 PM 30.4986 -77.7458 176° South 442 509 45,000 156 Climbing Jacksonville Center
Wed 03:00:16 PM 30.2464 -77.7492 181° South 443 510 45,000  Level Miami Center
Wed 03:01:16 PM 30.1256 -77.7408 177° South 433 498 45,000  Level Miami Center
Wed 03:02:16 PM 30.0086 -77.7400 180° South 433 498 45,000  Level Miami Center
Wed 03:03:16 PM 29.8817 -77.7294 176° South 439 505 45,000  Level Miami Center
Wed 03:04:16 PM 29.7628 -77.7211 177° South 436 502 45,000  Level Miami Center
Wed 03:05:16 PM 29.6397 -77.7131 177° South 436 502 45,000  Level Miami Center
Wed 03:06:16 PM 29.5211 -77.6669 161° South 444 511 45,000  Level Miami Center
Wed 03:07:16 PM 29.4025 -77.6064 156° South 444 511 45,000  Level Miami Center
Wed 03:08:16 PM 29.2922 -77.5461 155° Southeast 449 517 45,000  Level Miami Center
Wed 03:09:16 PM 29.1675 -77.4836 156° South 458 527 45,000  Level Miami Center
Wed 03:10:16 PM 29.0550 -77.4211 154° Southeast 458 527 45,000  Level Miami Center
Wed 03:11:16 PM 28.9406 -77.3639 156° South 458 527 45,000  Level Miami Center
Wed 03:12:16 PM 28.8281 -77.3039 155° Southeast 458 527 45,000  Level Miami Center
Wed 03:13:16 PM 28.7092 -77.2419 155° Southeast 453 521 45,000  Level Miami Center
Wed 03:14:16 PM 28.5967 -77.1847 156° South 453 521 45,000  Level Miami Center
Wed 03:15:16 PM 28.4694 -77.1161 155° Southeast 459 528 45,000  Level Miami Center
Wed 03:16:16 PM 28.3567 -77.0592 156° South 459 528 45,000  Level Miami Center
Wed 03:17:16 PM 28.2400 -76.9975 155° Southeast 454 522 45,000  Level Miami Center
Wed 03:18:16 PM 28.1439 -76.9269 147° Southeast 459 528 45,000  Level Miami Center
Wed 03:19:16 PM 28.0417 -76.8422 144° Southeast 449 517 45,000  Level Miami Center
Wed 03:20:16 PM 27.9372 -76.7458 141° Southeast 467 537 45,000  Level Miami Center
Wed 03:21:16 PM 27.8347 -76.6589 143° Southeast 472 543 45,000  Level Miami Center
Wed 03:22:16 PM 27.7344 -76.5747 143° Southeast 460 529 45,000  Level Miami Center
Wed 03:23:16 PM 27.6319 -76.4858 142° Southeast 460 529 45,000  Level Miami Center
Wed 03:24:16 PM 27.5292 -76.3994 143° Southeast 460 529 45,000  Level Miami Center
Wed 03:25:16 PM 27.4244 -76.3111 143° Southeast 460 529 45,000  Level Miami Center
Wed 03:26:16 PM 27.3197 -76.2181 142° Southeast 461 531 45,000  Level Miami Center
Wed 03:27:16 PM 27.2169 -76.1319 143° Southeast 460 529 45,000  Level Miami Center
Wed 03:28:16 PM 27.1161 -76.0533 145° Southeast 451 519 45,000  Level Miami Center
Wed 03:29:16 PM 27.0111 -75.9608 142° Southeast 464 534 45,000  Level Miami Center
Wed 03:30:16 PM 26.9061 -75.8756 144° Southeast 464 534 45,000  Level Miami Center
Wed 03:31:16 PM 26.8053 -75.7900 143° Southeast 464 534 45,000  Level Miami Center
Wed 03:32:16 PM 26.6981 -75.7003 143° Southeast 464 534 45,000  Level Miami Center
Wed 03:33:16 PM 26.5950 -75.6156 144° Southeast 464 534 45,000  Level Miami Center
Wed 03:34:16 PM 26.4983 -75.5353 143° Southeast 457 526 45,000  Level Miami Center
Wed 03:35:16 PM 26.3908 -75.4461 143° Southeast 457 526 45,000  Level Miami Center
Wed 03:36:16 PM 26.2833 -75.3592 144° Southeast 464 534 45,000  Level Miami Center
Wed 03:37:16 PM 26.1822 -75.2725 142° Southeast 464 534 45,000  Level Miami Center
Wed 03:38:16 PM 26.0725 -75.1861 145° Southeast 469 540 45,000  Level Miami Center
Wed 03:39:16 PM 25.9586 -75.0928 144° Southeast 469 540 45,000  Level Miami Center
Wed 03:40:16 PM 25.8531 -75.0092 145° Southeast 463 533 45,000  Level Miami Center
Wed 03:41:16 PM 25.7517 -74.9231 143° Southeast 471 542 45,000  Level Miami Center
Wed 03:42:16 PM 25.6567 -74.8461 144° Southeast 462 532 45,000  Level Miami Center
Wed 03:43:16 PM 25.5511 -74.7603 144° Southeast 467 537 45,000  Level Miami Center
Wed 03:44:16 PM 25.4475 -74.6769 144° Southeast 467 537 45,000  Level Miami Center
Wed 03:45:16 PM 25.3417 -74.5892 143° Southeast 467 537 45,000  Level Miami Center
Wed 03:46:16 PM 25.2381 -74.5086 145° Southeast 467 537 45,000  Level Miami Center
Wed 03:47:16 PM 25.1342 -74.4256 144° Southeast 466 536 45,000  Level Miami Center
Wed 03:48:16 PM 25.0283 -74.3383 143° Southeast 466 536 45,000  Level Miami Center
Wed 03:49:16 PM 24.9222 -74.2556 145° Southeast 466 536 45,000  Level Miami Center
Wed 03:50:16 PM 24.8164 -74.1686 143° Southeast 466 536 45,000  Level Miami Center
Wed 03:51:16 PM 24.7167 -74.0908 145° Southeast 457 526 45,000  Level Miami Center
Wed 03:52:16 PM 24.6064 -74.0042 144° Southeast 462 532 45,000  Level Miami Center
Wed 03:53:16 PM 24.4981 -73.9175 144° Southeast 472 543 45,000  Level Miami Center
Wed 03:54:16 PM 24.3833 -73.8269 144° Southeast 472 543 45,000 -400 Level Miami Center
Wed 03:55:16 PM 24.2794 -73.7450 144° Southeast 472 543 44,200 -1,200 Descending Miami Center
Wed 03:56:16 PM 24.1689 -73.6611 145° Southeast 477 549 42,600 -1,700 Descending Miami Center
Wed 03:57:16 PM 24.0606 -73.5775 145° Southeast 477 549 40,800 -1,900 Descending Miami Center
Wed 03:58:16 PM 23.9564 -73.4939 144° Southeast 477 549 38,800 -2,250 Descending Miami Center
Wed 03:59:16 PM 23.8478 -73.4083 144° Southeast 477 549 36,300 -2,600 Descending Miami Center
Wed 04:00:16 PM 23.7308 -73.3208 146° Southeast 484 557 33,600 -2,650 Descending Miami Center
Wed 04:01:16 PM 23.6222 -73.2353 144° Southeast 484 557 31,000 -2,650 Descending Miami Center
Wed 04:02:16 PM 23.5072 -73.1458 144° Southeast 497 572 28,300 -2,600 Descending Miami Center
Wed 04:03:16 PM 23.3986 -73.0606 144° Southeast 491 565 25,800 -2,500 Descending Miami Center
Wed 04:04:16 PM 23.2922 -72.9803 145° Southeast 484 557 23,300 -2,450 Descending Miami Center
Wed 04:05:16 PM 23.1942 -72.9064 145° Southeast 459 528 20,900 -2,167 Descending Miami Center
Wed 04:07:16 PM 23.0172 -72.7650 144° Southeast 431 496 16,800 -2,100 Descending Miami Center
Wed 04:08:16 PM 22.9256 -72.6981 146° Southeast 411 473 14,600 -2,050 Descending Miami Center
Wed 04:09:16 PM 22.8444 -72.6331 144° Southeast 383 441 12,700 -1,800 Descending Miami Center
Wed 04:10:16 PM 22.7656 -72.5794 148° Southeast 361 415 11,000 -1,700 Descending Miami Center
Wed 04:11:16 PM 22.6972 -72.5256 144° Southeast 329 379 9,300 -1,600 Descending Miami Center
Wed 04:12:16 PM 22.6350 -72.4692 140° Southeast 309 356 7,800 -1,300 Descending Miami Center
Wed 04:13:16 PM 22.5614 -72.4469 164° South 283 326 6,700 -1,400 Descending Miami Center
Wed 04:14:16 PM 22.4842 -72.4472 180° South 268 308 5,000 -1,700 Descending Miami Center
Wed 04:16:00 PM 22.2786 -72.3874 165° South  Level FlightAware Approximate
Wed 04:23:00 PM 21.7667 -72.2667 169° South  Level FlightAware Approximate
Wed 04:24:00 PM 21.7736 -72.2659 169° South  Level Estimated
Wed 04:25:00 PM 21.7667 -72.2667 169° South  Level FlightAware Approximate
Wed 04:26:00 PM 21.7736 -72.2659 169° South  Level Estimated
Wed 04:27:00 PM 21.7667 -72.2667 169° South  Level FlightAware Approximate
Wed 04:28:00 PM 21.7736 -72.2659 169° South  Level Estimated
Wed 04:29:00 PM 21.7667 -72.2667 169° South  Level FlightAware Approximate
Wed 04:30:00 PM 21.7736 -72.2659 169° South  Level Estimated
Wed 04:31:00 PM 21.7667 -72.2667 169° South  Level FlightAware Approximate
Wed 04:32:00 PM 21.7736 -72.2659 169° South  Level Estimated
Wed 04:33:00 PM 21.7667 -72.2667 169° South  Level FlightAware Approximate
Wed 04:34:00 PM 21.7736 -72.2659 169° South  Level Estimated
Wed 04:35:00 PM 21.7667 -72.2667 169° South  Level FlightAware Approximate

Login

Don't have an account? Register now (free) for customized features, flight alerts, and more!